createdAt,value
2019-03-03T00:00:05.466Z,-2.94
2019-03-03T00:02:38.710Z,-2.86
2019-03-03T00:05:09.604Z,-2.86
2019-03-03T00:07:41.118Z,-2.91
2019-03-03T00:10:14.104Z,-2.92
2019-03-03T00:12:45.448Z,-2.90
2019-03-03T00:15:16.597Z,-2.88
2019-03-03T00:17:49.035Z,-2.85
2019-03-03T00:20:19.388Z,-2.90
2019-03-03T00:22:51.449Z,-2.84
2019-03-03T00:25:22.695Z,-2.84
2019-03-03T00:27:54.731Z,-2.82
2019-03-03T00:30:25.287Z,-2.80
2019-03-03T00:32:58.172Z,-2.90
2019-03-03T00:35:31.631Z,-2.83
2019-03-03T00:38:15.837Z,-2.81
2019-03-03T00:40:58.629Z,-2.83
2019-03-03T00:43:33.997Z,-2.79
2019-03-03T00:46:07.559Z,-2.84
2019-03-03T00:48:39.837Z,-2.87
2019-03-03T00:51:30.644Z,-2.88
2019-03-03T00:54:08.851Z,-2.81
2019-03-03T00:56:41.016Z,-2.79
2019-03-03T00:59:30.796Z,-2.82
2019-03-03T01:02:06.030Z,-2.75
2019-03-03T01:04:46.185Z,-2.80
2019-03-03T01:07:33.922Z,-2.82
2019-03-03T01:10:17.413Z,-2.77
2019-03-03T01:12:56.887Z,-2.80
2019-03-03T01:15:29.050Z,-2.81
2019-03-03T01:18:18.314Z,-2.80
2019-03-03T01:21:06.052Z,-2.79
2019-03-03T01:23:38.904Z,-2.77
2019-03-03T01:26:10.891Z,-2.77
2019-03-03T01:28:42.440Z,-2.76
2019-03-03T01:31:13.585Z,-2.71
2019-03-03T01:33:45.733Z,-2.76
2019-03-03T01:36:16.173Z,-2.76
2019-03-03T01:38:47.525Z,-2.79
2019-03-03T01:41:18.257Z,-2.76
2019-03-03T01:43:51.290Z,-2.80
2019-03-03T01:46:23.608Z,-2.75
2019-03-03T01:48:56.701Z,-2.72
2019-03-03T01:51:28.351Z,-2.72
2019-03-03T01:54:00.619Z,-2.81
2019-03-03T01:56:32.111Z,-2.83
2019-03-03T01:59:03.007Z,-2.87
2019-03-03T02:01:35.073Z,-2.84
2019-03-03T02:04:05.604Z,-2.88
2019-03-03T02:06:37.660Z,-3.20
2019-03-03T02:09:11.991Z,-3.10
2019-03-03T02:11:43.353Z,-3.21
2019-03-03T02:14:13.752Z,-3.29
2019-03-03T02:16:45.195Z,-3.42
2019-03-03T02:19:15.728Z,-3.47
2019-03-03T02:21:50.144Z,-3.53
2019-03-03T02:24:21.286Z,-3.56
2019-03-03T02:26:54.787Z,-3.57
2019-03-03T02:29:25.730Z,-3.61
2019-03-03T02:31:55.881Z,-3.70
2019-03-03T02:34:27.191Z,-3.78
2019-03-03T02:37:00.893Z,-3.79
2019-03-03T02:39:31.567Z,-3.80
2019-03-03T02:42:03.384Z,-3.77
2019-03-03T02:44:34.220Z,-3.72
2019-03-03T02:47:07.346Z,-3.68
2019-03-03T02:49:38.246Z,-3.65
2019-03-03T02:52:09.882Z,-3.78
2019-03-03T02:54:42.881Z,-3.87
2019-03-03T02:57:15.272Z,-3.91
2019-03-03T02:59:47.107Z,-3.92
2019-03-03T03:02:20.413Z,-4.04
2019-03-03T03:04:53.181Z,-4.09
2019-03-03T03:07:26.064Z,-4.16
2019-03-03T03:09:59.593Z,-4.22
2019-03-03T03:12:44.423Z,-4.23
2019-03-03T03:15:20.925Z,-4.23
2019-03-03T03:18:08.946Z,-4.22
2019-03-03T03:20:40.886Z,-4.15
2019-03-03T03:23:14.274Z,-4.20
2019-03-03T03:25:54.129Z,-4.30
2019-03-03T03:28:26.096Z,-4.21
2019-03-03T03:31:01.441Z,-4.28
2019-03-03T03:33:35.970Z,-4.28
2019-03-03T03:36:11.811Z,-4.38
2019-03-03T03:38:46.023Z,-4.39
2019-03-03T03:41:23.754Z,-4.43
2019-03-03T03:44:06.637Z,-4.43
2019-03-03T03:46:46.687Z,-4.56
2019-03-03T03:49:25.122Z,-4.55
2019-03-03T03:52:04.541Z,-4.50
2019-03-03T03:54:47.971Z,-4.59
2019-03-03T03:57:24.745Z,-4.46
2019-03-03T04:00:09.536Z,-4.53
2019-03-03T04:02:41.672Z,-4.63
2019-03-03T04:05:15.472Z,-4.61
2019-03-03T04:07:59.950Z,-4.65
2019-03-03T04:10:42.335Z,-4.69
2019-03-03T04:13:34.660Z,-4.67
2019-03-03T04:16:16.667Z,-4.60
2019-03-03T04:18:52.524Z,-4.62
2019-03-03T04:21:41.176Z,-4.66
2019-03-03T04:24:16.712Z,-4.70
2019-03-03T04:26:50.623Z,-4.70
2019-03-03T04:29:27.396Z,-4.66
2019-03-03T04:32:00.184Z,-4.69
2019-03-03T04:34:41.865Z,-4.81
2019-03-03T04:37:28.014Z,-4.84
2019-03-03T04:40:16.094Z,-4.89
2019-03-03T04:42:54.307Z,-4.84
2019-03-03T04:45:36.210Z,-4.72
2019-03-03T04:48:08.815Z,-4.74
2019-03-03T04:50:46.034Z,-4.77
2019-03-03T04:53:35.632Z,-4.77
2019-03-03T04:56:28.699Z,-4.78
2019-03-03T04:59:04.441Z,-4.78
2019-03-03T05:01:56.475Z,-4.77
2019-03-03T05:04:32.024Z,-4.76
2019-03-03T05:07:07.601Z,-4.67
2019-03-03T05:09:46.591Z,-4.61
2019-03-03T05:12:19.729Z,-4.59
2019-03-03T05:14:54.502Z,-4.58
2019-03-03T05:17:42.970Z,-4.56
2019-03-03T05:20:18.505Z,-4.50
2019-03-03T05:22:50.670Z,-4.46
2019-03-03T05:25:24.063Z,-4.45
2019-03-03T05:27:56.223Z,-4.33
2019-03-03T05:30:29.701Z,-4.33
2019-03-03T05:33:00.861Z,-4.27
2019-03-03T05:35:31.410Z,-4.28
2019-03-03T05:38:02.027Z,-4.28
2019-03-03T05:40:33.263Z,-4.23
2019-03-03T05:43:06.085Z,-4.19
2019-03-03T05:45:36.725Z,-4.12
2019-03-03T05:48:07.407Z,-4.10
2019-03-03T05:50:38.345Z,-4.00
2019-03-03T05:53:09.740Z,-3.89
2019-03-03T05:55:42.475Z,-3.92
2019-03-03T05:58:15.045Z,-3.88
2019-03-03T06:00:45.575Z,-3.89
2019-03-03T06:03:19.690Z,-3.79
2019-03-03T06:05:51.918Z,-3.70
2019-03-03T06:08:22.185Z,-3.69
2019-03-03T06:10:53.213Z,-3.61
2019-03-03T06:13:26.290Z,-3.56
2019-03-03T06:15:57.143Z,-3.44
2019-03-03T06:18:28.008Z,-3.47
2019-03-03T06:21:00.246Z,-3.42
2019-03-03T06:23:31.485Z,-3.37
2019-03-03T06:26:03.036Z,-3.22
2019-03-03T06:28:35.202Z,-3.07
2019-03-03T06:31:06.050Z,-3.11
2019-03-03T06:33:38.696Z,-3.00
2019-03-03T06:36:10.167Z,-2.73
2019-03-03T06:38:40.798Z,-2.75
2019-03-03T06:41:11.836Z,-2.98
2019-03-03T06:43:43.181Z,-2.92
2019-03-03T06:46:13.918Z,-2.99
2019-03-03T06:48:48.172Z,-2.73
2019-03-03T06:51:18.459Z,-2.65
2019-03-03T06:53:50.103Z,-2.47
2019-03-03T06:56:22.165Z,-2.36
2019-03-03T06:58:53.309Z,-2.22
2019-03-03T07:01:24.656Z,-2.14
2019-03-03T07:03:55.391Z,-2.11
2019-03-03T07:06:27.244Z,-2.09
2019-03-03T07:08:57.674Z,-2.02
2019-03-03T07:11:29.123Z,-2.02
2019-03-03T07:14:00.574Z,-1.73
2019-03-03T07:16:32.338Z,-1.72
2019-03-03T07:19:03.062Z,-1.54
2019-03-03T07:21:34.106Z,-1.42
2019-03-03T07:24:06.767Z,-1.11
2019-03-03T07:26:39.250Z,-1.10
2019-03-03T07:29:10.602Z,-1.21
2019-03-03T07:31:41.722Z,-1.08
2019-03-03T07:34:12.676Z,-1.02
2019-03-03T07:36:43.518Z,-0.81
2019-03-03T07:39:18.221Z,-0.67
2019-03-03T07:41:49.181Z,-0.46
2019-03-03T07:44:19.701Z,-0.42
2019-03-03T07:46:51.870Z,-0.52
2019-03-03T07:49:23.009Z,-0.41
2019-03-03T07:51:53.639Z,0.28
2019-03-03T07:54:26.722Z,0.49
2019-03-03T07:56:59.716Z,0.57
2019-03-03T07:59:30.648Z,0.72
2019-03-03T08:02:03.121Z,0.66
2019-03-03T08:04:33.867Z,0.81
2019-03-03T08:07:05.009Z,1.01
2019-03-03T08:09:35.629Z,1.14
2019-03-03T08:12:06.769Z,1.17
2019-03-03T08:14:37.192Z,1.14
2019-03-03T08:17:09.772Z,1.03
2019-03-03T08:19:40.812Z,1.20
2019-03-03T08:22:12.773Z,1.27
2019-03-03T08:24:44.222Z,1.52
2019-03-03T08:27:17.001Z,1.94
2019-03-03T08:29:48.451Z,2.29
2019-03-03T08:32:18.781Z,1.97
2019-03-03T08:34:49.569Z,1.63
2019-03-03T08:37:20.546Z,1.94
2019-03-03T08:39:51.585Z,2.46
2019-03-03T08:42:29.078Z,2.23
2019-03-03T08:45:01.447Z,2.27
2019-03-03T08:47:52.844Z,2.51
2019-03-03T08:50:34.407Z,2.61
2019-03-03T08:53:12.153Z,2.73
2019-03-03T08:55:53.837Z,2.65
2019-03-03T08:58:29.493Z,3.04
2019-03-03T09:01:05.982Z,2.85
2019-03-03T09:03:53.170Z,3.26
2019-03-03T09:06:25.897Z,3.97
2019-03-03T09:09:10.873Z,3.17
2019-03-03T09:11:59.260Z,3.14
2019-03-03T09:14:41.256Z,2.58
2019-03-03T09:17:18.952Z,2.38
2019-03-03T09:20:01.467Z,2.91
2019-03-03T09:22:43.968Z,3.50
2019-03-03T09:25:28.631Z,2.99
2019-03-03T09:28:20.687Z,3.80
2019-03-03T09:30:53.964Z,3.68
2019-03-03T09:33:44.642Z,3.68
2019-03-03T09:36:17.329Z,3.54
2019-03-03T09:39:07.219Z,3.78
2019-03-03T09:41:50.641Z,4.25
2019-03-03T09:44:29.794Z,4.22
2019-03-03T09:47:11.414Z,4.51
2019-03-03T09:49:43.526Z,5.78
2019-03-03T09:52:15.587Z,6.40
2019-03-03T09:54:50.258Z,6.61
2019-03-03T09:57:38.658Z,6.95
2019-03-03T10:00:13.475Z,6.95
2019-03-03T10:02:45.343Z,6.54
2019-03-03T10:05:27.143Z,8.26
2019-03-03T10:08:11.798Z,8.03
2019-03-03T10:10:47.781Z,7.22
2019-03-03T10:13:27.071Z,6.68
2019-03-03T10:16:17.787Z,7.29
2019-03-03T10:18:49.849Z,9.43
2019-03-03T10:21:36.946Z,7.96
2019-03-03T10:24:13.123Z,8.59
2019-03-03T10:27:01.591Z,9.22
2019-03-03T10:29:35.788Z,10.16
2019-03-03T10:32:20.964Z,10.33
2019-03-03T10:35:01.834Z,9.15
2019-03-03T10:37:46.909Z,9.64
2019-03-03T10:40:29.198Z,8.91
2019-03-03T10:43:04.137Z,8.99
2019-03-03T10:45:36.816Z,10.76
2019-03-03T10:48:27.510Z,10.74
2019-03-03T10:51:17.391Z,9.51
2019-03-03T10:53:53.862Z,10.11
2019-03-03T10:56:42.821Z,10.38
2019-03-03T10:59:21.998Z,10.82
2019-03-03T11:02:01.019Z,10.87
2019-03-03T11:04:50.550Z,11.89
2019-03-03T11:07:23.232Z,11.76
2019-03-03T11:10:05.119Z,11.11
2019-03-03T11:12:37.802Z,12.07
2019-03-03T11:15:18.467Z,11.46
2019-03-03T11:17:47.975Z,12.30
2019-03-03T11:20:26.072Z,11.73
2019-03-03T11:23:07.354Z,13.15
2019-03-03T11:25:57.437Z,12.05
2019-03-03T11:28:35.954Z,12.74
2019-03-03T11:31:10.886Z,13.80
2019-03-03T11:33:46.642Z,13.21
2019-03-03T11:36:20.080Z,11.64
2019-03-03T11:38:55.377Z,11.28
2019-03-03T11:41:34.193Z,12.53
2019-03-03T11:44:16.291Z,12.59
2019-03-03T11:46:51.351Z,13.81
2019-03-03T11:49:28.305Z,11.62
2019-03-03T11:52:06.427Z,12.77
2019-03-03T11:54:39.704Z,12.23
2019-03-03T11:57:16.986Z,12.17
2019-03-03T11:59:52.069Z,10.45
2019-03-03T12:02:39.866Z,11.14
2019-03-03T12:05:16.628Z,10.60
2019-03-03T12:08:05.078Z,10.63
2019-03-03T12:10:40.250Z,11.37
2019-03-03T12:13:14.568Z,12.71
2019-03-03T12:16:06.667Z,12.70
2019-03-03T12:18:42.422Z,12.19
2019-03-03T12:21:23.593Z,12.39
2019-03-03T12:23:55.972Z,12.13
2019-03-03T12:26:32.257Z,12.68
2019-03-03T12:29:22.515Z,14.39
2019-03-03T12:32:11.077Z,12.55
2019-03-03T12:34:47.120Z,11.07
2019-03-03T12:37:19.907Z,13.12
2019-03-03T12:39:52.022Z,12.56
2019-03-03T12:42:29.948Z,11.40
2019-03-03T12:45:08.388Z,10.90
2019-03-03T12:47:44.234Z,12.87
2019-03-03T12:50:32.889Z,13.05
2019-03-03T12:53:10.990Z,13.11
2019-03-03T12:55:47.459Z,12.09
2019-03-03T12:58:21.654Z,12.29
2019-03-03T13:01:11.492Z,11.38
2019-03-03T13:03:56.106Z,13.37
2019-03-03T13:06:46.926Z,11.94
2019-03-03T13:09:22.497Z,11.97
2019-03-03T13:11:54.614Z,11.63
2019-03-03T13:14:27.178Z,12.02
2019-03-03T13:17:01.622Z,12.16
2019-03-03T13:19:34.472Z,13.31
2019-03-03T13:22:23.139Z,15.03
2019-03-03T13:24:58.807Z,14.20
2019-03-03T13:27:34.954Z,14.37
2019-03-03T13:30:11.129Z,13.90
2019-03-03T13:33:02.436Z,13.74
2019-03-03T13:35:38.798Z,11.83
2019-03-03T13:38:13.836Z,11.24
2019-03-03T13:40:56.340Z,11.95
2019-03-03T13:43:29.103Z,10.63
2019-03-03T13:46:00.265Z,10.43
2019-03-03T13:48:31.311Z,10.27
2019-03-03T13:51:04.187Z,11.68
2019-03-03T13:53:34.925Z,12.13
2019-03-03T13:56:06.473Z,11.58
2019-03-03T13:58:38.543Z,11.31
2019-03-03T14:01:09.371Z,12.25
2019-03-03T14:03:40.953Z,10.73
2019-03-03T14:06:11.553Z,11.06
2019-03-03T14:08:44.908Z,11.63
2019-03-03T14:11:20.469Z,11.93
2019-03-03T14:13:52.079Z,12.22
2019-03-03T14:16:22.882Z,11.12
2019-03-03T14:18:53.822Z,10.76
2019-03-03T14:21:25.393Z,10.90
2019-03-03T14:23:58.097Z,10.58
2019-03-03T14:26:29.085Z,9.64
2019-03-03T14:29:00.745Z,9.33
2019-03-03T14:31:32.910Z,8.28
2019-03-03T14:34:03.543Z,7.14
2019-03-03T14:36:34.889Z,6.88
2019-03-03T14:39:06.655Z,6.67
2019-03-03T14:41:37.917Z,5.21
2019-03-03T14:44:10.677Z,4.67
2019-03-03T14:46:43.142Z,4.32
2019-03-03T14:49:15.676Z,4.35
2019-03-03T14:51:47.062Z,3.93
2019-03-03T14:54:19.781Z,3.58
2019-03-03T14:56:50.271Z,3.73
2019-03-03T14:59:22.951Z,3.56
2019-03-03T15:01:57.787Z,3.30
2019-03-03T15:04:28.301Z,3.26
2019-03-03T15:06:59.242Z,3.06
2019-03-03T15:09:31.411Z,3.02
2019-03-03T15:12:01.985Z,2.88
2019-03-03T15:14:34.306Z,2.85
2019-03-03T15:17:04.541Z,2.73
2019-03-03T15:19:37.669Z,2.64
2019-03-03T15:22:08.242Z,2.57
2019-03-03T15:24:39.741Z,2.50
2019-03-03T15:27:13.305Z,2.38
2019-03-03T15:29:46.282Z,2.33
2019-03-03T15:32:17.984Z,1.90
2019-03-03T15:34:50.301Z,2.26
2019-03-03T15:37:22.063Z,2.16
2019-03-03T15:39:53.135Z,2.10
2019-03-03T15:42:24.140Z,2.01
2019-03-03T15:44:55.185Z,1.96
2019-03-03T15:47:27.036Z,1.96
2019-03-03T15:49:58.284Z,2.01
2019-03-03T15:52:30.244Z,1.87
2019-03-03T15:55:02.839Z,1.89
2019-03-03T15:57:33.551Z,1.70
2019-03-03T16:00:06.341Z,1.83
2019-03-03T16:02:37.786Z,1.85
2019-03-03T16:05:10.588Z,1.78
2019-03-03T16:07:43.035Z,1.63
2019-03-03T16:10:22.110Z,1.77
2019-03-03T16:12:55.040Z,1.67
2019-03-03T16:15:26.396Z,1.58
2019-03-03T16:17:57.544Z,1.72
2019-03-03T16:20:29.392Z,1.69
2019-03-03T16:23:03.003Z,1.57
2019-03-03T16:25:35.266Z,1.66
2019-03-03T16:28:05.626Z,1.60
2019-03-03T16:30:37.448Z,1.61
2019-03-03T16:33:08.222Z,1.57
2019-03-03T16:35:39.559Z,1.60
2019-03-03T16:38:10.365Z,1.53
2019-03-03T16:40:41.719Z,1.55
2019-03-03T16:43:12.645Z,1.46
2019-03-03T16:45:43.828Z,1.41
2019-03-03T16:48:16.157Z,1.37
2019-03-03T16:50:47.206Z,1.37
2019-03-03T16:53:17.618Z,1.34
2019-03-03T16:55:49.173Z,1.32
2019-03-03T16:58:21.341Z,1.33
2019-03-03T17:00:52.279Z,1.32
2019-03-03T17:03:23.578Z,1.27
2019-03-03T17:05:54.664Z,1.24
2019-03-03T17:08:28.300Z,1.21
2019-03-03T17:11:00.744Z,1.23
2019-03-03T17:13:32.912Z,1.24
2019-03-03T17:16:05.280Z,1.17
2019-03-03T17:18:35.802Z,1.00
2019-03-03T17:21:07.665Z,0.99
2019-03-03T17:23:39.016Z,0.92
2019-03-03T17:26:09.612Z,0.90
2019-03-03T17:28:40.929Z,0.84
2019-03-03T17:31:13.397Z,0.77
2019-03-03T17:33:43.787Z,0.73
2019-03-03T17:36:16.058Z,0.78
2019-03-03T17:38:47.093Z,0.81
2019-03-03T17:41:20.267Z,0.78
2019-03-03T17:43:50.815Z,0.69
2019-03-03T17:46:21.450Z,0.73
2019-03-03T17:48:52.690Z,0.68
2019-03-03T17:51:23.828Z,0.64
2019-03-03T17:53:56.503Z,0.57
2019-03-03T17:56:27.730Z,0.56
2019-03-03T17:58:59.117Z,0.52
2019-03-03T18:01:30.602Z,0.50
2019-03-03T18:04:01.480Z,0.45
2019-03-03T18:06:38.698Z,0.43
2019-03-03T18:09:06.630Z,0.37
2019-03-03T18:11:37.367Z,0.33
2019-03-03T18:14:08.607Z,0.25
2019-03-03T18:16:40.364Z,0.19
2019-03-03T18:19:11.401Z,0.14
2019-03-03T18:21:41.996Z,0.18
2019-03-03T18:24:13.996Z,0.13
2019-03-03T18:26:45.135Z,0.11
2019-03-03T18:29:15.269Z,0.04
2019-03-03T18:31:47.217Z,0.09
2019-03-03T18:34:17.540Z,0.11
2019-03-03T18:36:48.273Z,0.12
2019-03-03T18:39:20.631Z,0.07
2019-03-03T18:41:51.581Z,-0.02
2019-03-03T18:44:22.758Z,-0.05
2019-03-03T18:46:53.965Z,0.08
2019-03-03T18:49:24.802Z,0.01
2019-03-03T18:51:55.840Z,-0.01
2019-03-03T18:54:29.030Z,-0.05
2019-03-03T18:56:59.888Z,-0.08
2019-03-03T18:59:32.036Z,-0.04
2019-03-03T19:02:02.800Z,-0.06
2019-03-03T19:04:33.702Z,0.03
2019-03-03T19:07:05.259Z,-0.02
2019-03-03T19:09:36.019Z,0.00
2019-03-03T19:12:08.154Z,0.03
2019-03-03T19:14:38.787Z,-0.06
2019-03-03T19:17:09.621Z,-0.06
2019-03-03T19:19:40.350Z,-0.10
2019-03-03T19:22:11.806Z,-0.13
2019-03-03T19:24:43.251Z,-0.11
2019-03-03T19:27:15.620Z,-0.16
2019-03-03T19:29:47.246Z,-0.14
2019-03-03T19:32:18.048Z,-0.16
2019-03-03T19:34:50.179Z,-0.22
2019-03-03T19:37:20.615Z,-0.17
2019-03-03T19:39:51.742Z,-0.24
2019-03-03T19:42:22.378Z,-0.32
2019-03-03T19:44:53.928Z,-0.40
2019-03-03T19:47:25.476Z,-0.38
2019-03-03T19:49:57.135Z,-0.50
2019-03-03T19:52:28.167Z,-0.50
2019-03-03T19:54:58.901Z,-0.58
2019-03-03T19:57:29.737Z,-0.65
2019-03-03T20:00:01.290Z,-0.69
2019-03-03T20:02:33.159Z,-0.70
2019-03-03T20:05:05.419Z,-0.71
2019-03-03T20:07:36.253Z,-0.66
2019-03-03T20:10:12.410Z,-0.71
2019-03-03T20:12:44.814Z,-0.71
2019-03-03T20:15:15.614Z,-0.81
2019-03-03T20:17:47.614Z,-0.86
2019-03-03T20:20:20.115Z,-0.96
2019-03-03T20:22:51.224Z,-1.03
2019-03-03T20:25:22.008Z,-1.07
2019-03-03T20:27:56.238Z,-1.10
2019-03-03T20:30:26.665Z,-1.15
2019-03-03T20:32:57.807Z,-1.16
2019-03-03T20:35:28.949Z,-1.20
2019-03-03T20:37:59.479Z,-1.22
2019-03-03T20:40:30.213Z,-1.21
2019-03-03T20:43:01.352Z,-1.29
2019-03-03T20:45:33.314Z,-1.29
2019-03-03T20:48:04.358Z,-1.30
2019-03-03T20:50:38.677Z,-1.25
2019-03-03T20:53:09.909Z,-1.34
2019-03-03T20:55:41.702Z,-1.36
2019-03-03T20:58:15.274Z,-1.29
2019-03-03T21:00:46.313Z,-1.32
2019-03-03T21:03:16.631Z,-1.27
2019-03-03T21:05:48.798Z,-1.28
2019-03-03T21:08:19.476Z,-1.30
2019-03-03T21:10:50.776Z,-1.30
2019-03-03T21:13:21.911Z,-1.32
2019-03-03T21:15:52.854Z,-1.27
2019-03-03T21:18:23.588Z,-1.30
2019-03-03T21:20:55.958Z,-1.28
2019-03-03T21:23:28.947Z,-1.24
2019-03-03T21:25:59.776Z,-1.29
2019-03-03T21:28:31.570Z,-1.27
2019-03-03T21:31:02.197Z,-1.29
2019-03-03T21:33:33.614Z,-1.31
2019-03-03T21:36:05.471Z,-1.33
2019-03-03T21:38:36.723Z,-1.32
2019-03-03T21:41:09.612Z,-1.33
2019-03-03T21:43:41.667Z,-1.33
2019-03-03T21:46:14.441Z,-1.31
2019-03-03T21:48:45.863Z,-1.32
2019-03-03T21:51:17.036Z,-1.30
2019-03-03T21:53:48.486Z,-1.32
2019-03-03T21:56:19.685Z,-1.25
2019-03-03T21:58:50.773Z,-1.23
2019-03-03T22:01:21.807Z,-1.23
2019-03-03T22:03:54.478Z,-1.20
2019-03-03T22:06:25.425Z,-1.20
2019-03-03T22:08:58.001Z,-1.19
2019-03-03T22:11:29.136Z,-1.21
2019-03-03T22:14:00.200Z,-1.28
2019-03-03T22:16:31.536Z,-1.29
2019-03-03T22:19:03.084Z,-1.34
2019-03-03T22:21:34.430Z,-1.40
2019-03-03T22:24:05.265Z,-1.40
2019-03-03T22:26:35.897Z,-1.40
2019-03-03T22:29:07.543Z,-1.48
2019-03-03T22:31:39.303Z,-1.50
2019-03-03T22:34:12.491Z,-1.50
2019-03-03T22:36:43.295Z,-1.48
2019-03-03T22:39:14.780Z,-1.49
2019-03-03T22:41:47.864Z,-1.47
2019-03-03T22:44:20.574Z,-1.51
2019-03-03T22:46:53.733Z,-1.50
2019-03-03T22:49:24.258Z,-1.55
2019-03-03T22:51:55.914Z,-1.52
2019-03-03T22:54:28.486Z,-1.55
2019-03-03T22:56:59.118Z,-1.59
2019-03-03T22:59:30.874Z,-1.59
2019-03-03T23:02:01.420Z,-1.62
2019-03-03T23:04:35.616Z,-1.62
2019-03-03T23:07:15.570Z,-1.70
2019-03-03T23:10:22.648Z,-1.71
2019-03-03T23:13:14.885Z,-1.69
2019-03-03T23:16:13.576Z,-1.68
2019-03-03T23:19:08.768Z,-1.69
2019-03-03T23:21:58.482Z,-1.74
2019-03-03T23:24:41.890Z,-1.71
2019-03-03T23:27:14.714Z,-1.69
2019-03-03T23:29:45.195Z,-1.69
2019-03-03T23:32:18.380Z,-1.69
2019-03-03T23:34:49.222Z,-1.71
2019-03-03T23:37:19.950Z,-1.72
2019-03-03T23:39:51.708Z,-1.70
2019-03-03T23:42:22.042Z,-1.75
2019-03-03T23:44:53.378Z,-1.79
2019-03-03T23:47:24.344Z,-1.85
2019-03-03T23:49:54.946Z,-1.80
2019-03-03T23:52:28.168Z,-1.85
2019-03-03T23:54:58.766Z,-1.90
2019-03-03T23:57:31.036Z,-1.92
